sensor_id;sensor_type;location;lat;lon;timestamp;pressure;altitude;pressure_sealevel;temperature;humidity
53246;BME280;39569;51.090;-1.786;2023-04-29T00:00:05;101110.66;;;19.42;48.28
53246;BME280;39569;51.090;-1.786;2023-04-29T00:02:33;101110.53;;;19.30;48.52
53246;BME280;39569;51.090;-1.786;2023-04-29T00:05:01;101110.78;;;19.29;48.43
53246;BME280;39569;51.090;-1.786;2023-04-29T00:07:30;101117.22;;;19.28;48.81
53246;BME280;39569;51.090;-1.786;2023-04-29T00:09:58;101123.00;;;19.38;48.43
53246;BME280;39569;51.090;-1.786;2023-04-29T00:12:25;101126.59;;;19.32;48.46
53246;BME280;39569;51.090;-1.786;2023-04-29T00:14:52;101125.91;;;19.36;48.38
53246;BME280;39569;51.090;-1.786;2023-04-29T00:17:19;101134.16;;;19.23;48.51
53246;BME280;39569;51.090;-1.786;2023-04-29T00:19:46;101132.09;;;19.19;48.54
53246;BME280;39569;51.090;-1.786;2023-04-29T00:22:12;101136.25;;;18.90;49.10
53246;BME280;39569;51.090;-1.786;2023-04-29T00:24:41;101134.81;;;19.19;48.54
53246;BME280;39569;51.090;-1.786;2023-04-29T00:27:08;101126.03;;;19.23;48.37
53246;BME280;39569;51.090;-1.786;2023-04-29T00:29:36;101131.47;;;19.17;48.45
53246;BME280;39569;51.090;-1.786;2023-04-29T00:32:03;101130.09;;;19.08;48.29
53246;BME280;39569;51.090;-1.786;2023-04-29T00:34:29;101123.22;;;19.05;48.20
53246;BME280;39569;51.090;-1.786;2023-04-29T00:36:56;101128.25;;;19.02;48.27
53246;BME280;39569;51.090;-1.786;2023-04-29T00:39:23;101135.00;;;18.93;48.07
53246;BME280;39569;51.090;-1.786;2023-04-29T00:41:51;101127.53;;;18.88;48.33
53246;BME280;39569;51.090;-1.786;2023-04-29T00:44:18;101132.75;;;18.83;48.54
53246;BME280;39569;51.090;-1.786;2023-04-29T00:46:45;101128.97;;;18.59;48.77
53246;BME280;39569;51.090;-1.786;2023-04-29T00:49:12;101128.63;;;18.81;48.45
53246;BME280;39569;51.090;-1.786;2023-04-29T00:51:40;101128.25;;;18.77;48.43
53246;BME280;39569;51.090;-1.786;2023-04-29T00:54:07;101130.59;;;18.67;48.77
53246;BME280;39569;51.090;-1.786;2023-04-29T00:56:36;101126.34;;;18.78;48.52
53246;BME280;39569;51.090;-1.786;2023-04-29T00:59:08;101119.28;;;18.77;48.59
53246;BME280;39569;51.090;-1.786;2023-04-29T01:01:37;101129.66;;;18.80;48.58
53246;BME280;39569;51.090;-1.786;2023-04-29T01:04:04;101123.09;;;18.62;49.03
53246;BME280;39569;51.090;-1.786;2023-04-29T01:06:41;101123.00;;;18.82;48.21
53246;BME280;39569;51.090;-1.786;2023-04-29T01:09:24;101118.00;;;18.79;48.34
53246;BME280;39569;51.090;-1.786;2023-04-29T01:11:57;101122.28;;;18.62;48.49
53246;BME280;39569;51.090;-1.786;2023-04-29T01:14:33;101130.81;;;18.59;48.64
53246;BME280;39569;51.090;-1.786;2023-04-29T01:17:05;101122.09;;;18.57;48.73
53246;BME280;39569;51.090;-1.786;2023-04-29T01:19:42;101122.53;;;18.54;48.56
53246;BME280;39569;51.090;-1.786;2023-04-29T01:22:11;101126.97;;;18.35;48.79
53246;BME280;39569;51.090;-1.786;2023-04-29T01:24:40;101135.25;;;18.40;48.68
53246;BME280;39569;51.090;-1.786;2023-04-29T01:27:16;101133.84;;;18.38;48.76
53246;BME280;39569;51.090;-1.786;2023-04-29T01:29:50;101140.28;;;18.37;48.45
53246;BME280;39569;51.090;-1.786;2023-04-29T01:32:27;101144.84;;;18.36;48.59
53246;BME280;39569;51.090;-1.786;2023-04-29T01:34:59;101136.38;;;18.26;48.54
53246;BME280;39569;51.090;-1.786;2023-04-29T01:37:34;101132.88;;;18.19;49.15
53246;BME280;39569;51.090;-1.786;2023-04-29T01:40:11;101141.78;;;18.20;48.79
53246;BME280;39569;51.090;-1.786;2023-04-29T01:42:39;101141.16;;;18.24;48.56
53246;BME280;39569;51.090;-1.786;2023-04-29T01:45:10;101145.13;;;18.22;48.54
53246;BME280;39569;51.090;-1.786;2023-04-29T01:47:38;101146.00;;;18.16;48.89
53246;BME280;39569;51.090;-1.786;2023-04-29T01:50:06;101144.09;;;18.16;49.15
53246;BME280;39569;51.090;-1.786;2023-04-29T01:52:32;101137.63;;;18.30;48.73
53246;BME280;39569;51.090;-1.786;2023-04-29T01:54:59;101136.94;;;18.35;48.86
53246;BME280;39569;51.090;-1.786;2023-04-29T01:57:27;101143.59;;;18.39;48.78
53246;BME280;39569;51.090;-1.786;2023-04-29T01:59:54;101141.13;;;18.37;48.84
53246;BME280;39569;51.090;-1.786;2023-04-29T02:02:21;101135.84;;;18.05;49.56
53246;BME280;39569;51.090;-1.786;2023-04-29T02:04:49;101138.06;;;18.14;49.07
53246;BME280;39569;51.090;-1.786;2023-04-29T02:07:16;101149.91;;;18.20;49.05
53246;BME280;39569;51.090;-1.786;2023-04-29T02:09:43;101147.88;;;18.15;49.02
53246;BME280;39569;51.090;-1.786;2023-04-29T02:12:10;101149.53;;;18.03;49.14
53246;BME280;39569;51.090;-1.786;2023-04-29T02:14:38;101151.03;;;17.99;49.02
53246;BME280;39569;51.090;-1.786;2023-04-29T02:17:05;101140.25;;;17.86;49.33
53246;BME280;39569;51.090;-1.786;2023-04-29T02:19:32;101148.75;;;18.03;48.94
53246;BME280;39569;51.090;-1.786;2023-04-29T02:21:58;101141.88;;;18.00;49.08
53246;BME280;39569;51.090;-1.786;2023-04-29T02:24:25;101151.50;;;17.70;49.73
53246;BME280;39569;51.090;-1.786;2023-04-29T02:26:52;101145.25;;;17.76;49.35
53246;BME280;39569;51.090;-1.786;2023-04-29T02:29:19;101148.81;;;17.77;49.17
53246;BME280;39569;51.090;-1.786;2023-04-29T02:31:47;101142.09;;;17.99;48.80
53246;BME280;39569;51.090;-1.786;2023-04-29T02:34:14;101134.22;;;17.84;48.84
53246;BME280;39569;51.090;-1.786;2023-04-29T02:36:41;101135.69;;;17.74;48.81
53246;BME280;39569;51.090;-1.786;2023-04-29T02:39:08;101139.47;;;17.66;48.92
53246;BME280;39569;51.090;-1.786;2023-04-29T02:41:34;101140.09;;;17.55;49.02
53246;BME280;39569;51.090;-1.786;2023-04-29T02:44:01;101140.09;;;17.48;49.28
53246;BME280;39569;51.090;-1.786;2023-04-29T02:46:28;101144.28;;;17.51;49.11
53246;BME280;39569;51.090;-1.786;2023-04-29T02:48:59;101147.78;;;17.51;48.93
53246;BME280;39569;51.090;-1.786;2023-04-29T02:51:26;101146.09;;;17.44;49.14
53246;BME280;39569;51.090;-1.786;2023-04-29T02:53:53;101148.59;;;17.39;49.43
53246;BME280;39569;51.090;-1.786;2023-04-29T02:56:20;101148.00;;;17.50;49.28
53246;BME280;39569;51.090;-1.786;2023-04-29T02:58:47;101159.19;;;17.47;49.23
53246;BME280;39569;51.090;-1.786;2023-04-29T03:01:14;101158.78;;;17.50;49.24
53246;BME280;39569;51.090;-1.786;2023-04-29T03:03:41;101152.97;;;17.27;49.56
53246;BME280;39569;51.090;-1.786;2023-04-29T03:06:09;101151.09;;;17.47;49.07
53246;BME280;39569;51.090;-1.786;2023-04-29T03:08:35;101151.69;;;17.29;49.21
53246;BME280;39569;51.090;-1.786;2023-04-29T03:11:02;101161.28;;;17.32;49.46
53246;BME280;39569;51.090;-1.786;2023-04-29T03:13:29;101162.72;;;17.28;49.37
53246;BME280;39569;51.090;-1.786;2023-04-29T03:15:56;101164.16;;;17.37;49.62
53246;BME280;39569;51.090;-1.786;2023-04-29T03:18:24;101169.97;;;17.40;49.45
53246;BME280;39569;51.090;-1.786;2023-04-29T03:20:51;101170.88;;;17.47;49.51
53246;BME280;39569;51.090;-1.786;2023-04-29T03:23:19;101171.44;;;17.62;49.41
53246;BME280;39569;51.090;-1.786;2023-04-29T03:25:46;101173.53;;;17.74;49.21
53246;BME280;39569;51.090;-1.786;2023-04-29T03:28:14;101177.25;;;17.79;49.58
53246;BME280;39569;51.090;-1.786;2023-04-29T03:30:40;101178.50;;;17.70;49.49
53246;BME280;39569;51.090;-1.786;2023-04-29T03:33:07;101186.22;;;17.73;49.74
53246;BME280;39569;51.090;-1.786;2023-04-29T03:35:34;101189.09;;;17.85;49.65
53246;BME280;39569;51.090;-1.786;2023-04-29T03:38:01;101187.84;;;17.94;49.45
53246;BME280;39569;51.090;-1.786;2023-04-29T03:40:29;101188.00;;;18.12;49.31
53246;BME280;39569;51.090;-1.786;2023-04-29T03:42:56;101187.16;;;18.18;49.12
53246;BME280;39569;51.090;-1.786;2023-04-29T03:45:23;101190.72;;;18.05;49.31
53246;BME280;39569;51.090;-1.786;2023-04-29T03:47:49;101209.63;;;18.05;49.46
53246;BME280;39569;51.090;-1.786;2023-04-29T03:50:17;101204.03;;;18.00;49.67
53246;BME280;39569;51.090;-1.786;2023-04-29T03:52:44;101206.31;;;18.10;49.49
53246;BME280;39569;51.090;-1.786;2023-04-29T03:55:11;101203.59;;;18.16;49.23
53246;BME280;39569;51.090;-1.786;2023-04-29T03:57:39;101205.22;;;18.24;49.19
53246;BME280;39569;51.090;-1.786;2023-04-29T04:00:07;101206.50;;;18.21;49.20
53246;BME280;39569;51.090;-1.786;2023-04-29T04:02:34;101213.41;;;18.04;49.57
53246;BME280;39569;51.090;-1.786;2023-04-29T04:05:01;101223.16;;;18.05;49.31
53246;BME280;39569;51.090;-1.786;2023-04-29T04:07:27;101219.66;;;17.92;49.21
53246;BME280;39569;51.090;-1.786;2023-04-29T04:09:54;101222.13;;;18.00;49.06
53246;BME280;39569;51.090;-1.786;2023-04-29T04:12:21;101227.56;;;17.93;49.01
53246;BME280;39569;51.090;-1.786;2023-04-29T04:14:49;101232.75;;;18.01;48.92
53246;BME280;39569;51.090;-1.786;2023-04-29T04:17:17;101230.47;;;17.85;49.24
53246;BME280;39569;51.090;-1.786;2023-04-29T04:19:44;101228.59;;;17.79;49.58
53246;BME280;39569;51.090;-1.786;2023-04-29T04:22:10;101236.09;;;17.84;49.47
53246;BME280;39569;51.090;-1.786;2023-04-29T04:24:37;101236.28;;;17.89;49.15
53246;BME280;39569;51.090;-1.786;2023-04-29T04:27:04;101239.41;;;17.79;49.35
53246;BME280;39569;51.090;-1.786;2023-04-29T04:29:31;101246.69;;;17.98;49.02
53246;BME280;39569;51.090;-1.786;2023-04-29T04:31:59;101242.09;;;17.79;49.38
53246;BME280;39569;51.090;-1.786;2023-04-29T04:34:26;101248.75;;;17.70;49.33
53246;BME280;39569;51.090;-1.786;2023-04-29T04:36:53;101256.69;;;17.72;49.66
53246;BME280;39569;51.090;-1.786;2023-04-29T04:39:20;101254.59;;;17.80;49.30
53246;BME280;39569;51.090;-1.786;2023-04-29T04:41:47;101248.16;;;17.75;49.20
53246;BME280;39569;51.090;-1.786;2023-04-29T04:44:13;101251.69;;;17.68;49.13
53246;BME280;39569;51.090;-1.786;2023-04-29T04:46:40;101252.72;;;17.67;49.47
53246;BME280;39569;51.090;-1.786;2023-04-29T04:49:09;101260.19;;;17.52;49.43
53246;BME280;39569;51.090;-1.786;2023-04-29T04:51:36;101261.44;;;17.50;49.38
53246;BME280;39569;51.090;-1.786;2023-04-29T04:54:02;101270.13;;;17.45;49.45
53246;BME280;39569;51.090;-1.786;2023-04-29T04:56:29;101270.38;;;17.50;49.25
53246;BME280;39569;51.090;-1.786;2023-04-29T04:58:56;101270.59;;;17.55;49.15
53246;BME280;39569;51.090;-1.786;2023-04-29T05:01:23;101271.22;;;17.57;49.29
53246;BME280;39569;51.090;-1.786;2023-04-29T05:03:49;101275.34;;;17.53;49.27
53246;BME280;39569;51.090;-1.786;2023-04-29T05:06:17;101274.97;;;17.70;48.73
53246;BME280;39569;51.090;-1.786;2023-04-29T05:08:44;101278.88;;;17.60;48.69
53246;BME280;39569;51.090;-1.786;2023-04-29T05:11:17;101276.63;;;17.57;48.76
53246;BME280;39569;51.090;-1.786;2023-04-29T05:13:44;101281.19;;;17.50;48.55
53246;BME280;39569;51.090;-1.786;2023-04-29T05:16:11;101286.53;;;17.44;48.73
53246;BME280;39569;51.090;-1.786;2023-04-29T05:18:38;101285.88;;;17.22;48.89
53246;BME280;39569;51.090;-1.786;2023-04-29T05:21:05;101283.22;;;17.42;48.64
53246;BME280;39569;51.090;-1.786;2023-04-29T05:23:33;101283.22;;;17.42;48.58
53246;BME280;39569;51.090;-1.786;2023-04-29T05:26:00;101284.44;;;17.26;48.75
53246;BME280;39569;51.090;-1.786;2023-04-29T05:28:26;101286.66;;;17.16;48.99
53246;BME280;39569;51.090;-1.786;2023-04-29T05:30:53;101290.47;;;17.28;48.70
53246;BME280;39569;51.090;-1.786;2023-04-29T05:33:20;101292.50;;;17.13;48.97
53246;BME280;39569;51.090;-1.786;2023-04-29T05:35:47;101293.75;;;17.24;48.79
53246;BME280;39569;51.090;-1.786;2023-04-29T05:38:14;101290.88;;;17.38;48.58
53246;BME280;39569;51.090;-1.786;2023-04-29T05:40:42;101294.50;;;17.58;48.48
53246;BME280;39569;51.090;-1.786;2023-04-29T05:43:09;101298.22;;;17.57;48.59
53246;BME280;39569;51.090;-1.786;2023-04-29T05:45:35;101293.25;;;17.67;48.59
53246;BME280;39569;51.090;-1.786;2023-04-29T05:48:02;101298.22;;;17.90;47.99
53246;BME280;39569;51.090;-1.786;2023-04-29T05:50:29;101300.53;;;17.87;48.01
53246;BME280;39569;51.090;-1.786;2023-04-29T05:52:56;101298.25;;;17.84;47.94
53246;BME280;39569;51.090;-1.786;2023-04-29T05:55:23;101299.25;;;18.09;47.52
53246;BME280;39569;51.090;-1.786;2023-04-29T05:57:51;101304.69;;;17.76;48.78
53246;BME280;39569;51.090;-1.786;2023-04-29T06:00:18;101305.94;;;17.93;48.44
53246;BME280;39569;51.090;-1.786;2023-04-29T06:02:45;101312.38;;;18.12;47.87
53246;BME280;39569;51.090;-1.786;2023-04-29T06:05:12;101310.50;;;18.06;48.30
53246;BME280;39569;51.090;-1.786;2023-04-29T06:07:39;101314.25;;;18.18;47.96
53246;BME280;39569;51.090;-1.786;2023-04-29T06:10:07;101309.63;;;18.64;46.82
53246;BME280;39569;51.090;-1.786;2023-04-29T06:12:34;101319.22;;;18.60;46.90
53246;BME280;39569;51.090;-1.786;2023-04-29T06:15:03;101312.50;;;18.69;46.62
53246;BME280;39569;51.090;-1.786;2023-04-29T06:17:30;101313.34;;;18.63;46.72
53246;BME280;39569;51.090;-1.786;2023-04-29T06:19:57;101319.22;;;18.34;47.54
53246;BME280;39569;51.090;-1.786;2023-04-29T06:22:23;101327.78;;;18.18;47.45
53246;BME280;39569;51.090;-1.786;2023-04-29T06:24:50;101323.81;;;18.46;47.07
53246;BME280;39569;51.090;-1.786;2023-04-29T06:27:17;101322.31;;;18.57;46.60
53246;BME280;39569;51.090;-1.786;2023-04-29T06:29:43;101323.34;;;18.69;46.47
53246;BME280;39569;51.090;-1.786;2023-04-29T06:32:12;101326.28;;;18.48;46.62
53246;BME280;39569;51.090;-1.786;2023-04-29T06:34:39;101326.25;;;18.68;46.17
53246;BME280;39569;51.090;-1.786;2023-04-29T06:37:05;101327.47;;;18.78;46.48
53246;BME280;39569;51.090;-1.786;2023-04-29T06:39:32;101330.63;;;18.69;47.09
53246;BME280;39569;51.090;-1.786;2023-04-29T06:41:59;101325.31;;;19.00;46.24
53246;BME280;39569;51.090;-1.786;2023-04-29T06:44:26;101333.66;;;18.98;46.72
53246;BME280;39569;51.090;-1.786;2023-04-29T06:46:53;101336.03;;;19.32;46.35
53246;BME280;39569;51.090;-1.786;2023-04-29T06:49:21;101339.16;;;19.60;46.30
53246;BME280;39569;51.090;-1.786;2023-04-29T06:51:48;101335.97;;;19.77;45.83
53246;BME280;39569;51.090;-1.786;2023-04-29T06:54:14;101338.56;;;19.90;45.67
53246;BME280;39569;51.090;-1.786;2023-04-29T06:56:41;101338.03;;;20.06;45.65
53246;BME280;39569;51.090;-1.786;2023-04-29T06:59:08;101343.59;;;20.17;45.50
53246;BME280;39569;51.090;-1.786;2023-04-29T07:01:36;101340.69;;;20.37;45.20
53246;BME280;39569;51.090;-1.786;2023-04-29T07:04:04;101341.91;;;20.59;44.89
53246;BME280;39569;51.090;-1.786;2023-04-29T07:06:32;101343.00;;;20.58;44.90
53246;BME280;39569;51.090;-1.786;2023-04-29T07:08:59;101351.13;;;20.58;45.06
53246;BME280;39569;51.090;-1.786;2023-04-29T07:11:26;101353.66;;;20.53;45.24
53246;BME280;39569;51.090;-1.786;2023-04-29T07:13:53;101363.28;;;20.74;44.91
53246;BME280;39569;51.090;-1.786;2023-04-29T07:16:19;101364.06;;;20.99;44.65
53246;BME280;39569;51.090;-1.786;2023-04-29T07:18:47;101358.13;;;21.08;44.03
53246;BME280;39569;51.090;-1.786;2023-04-29T07:21:14;101354.16;;;21.22;44.03
53246;BME280;39569;51.090;-1.786;2023-04-29T07:23:42;101352.47;;;21.39;43.52
53246;BME280;39569;51.090;-1.786;2023-04-29T07:26:10;101358.00;;;21.33;44.31
53246;BME280;39569;51.090;-1.786;2023-04-29T07:28:36;101356.06;;;21.51;44.04
53246;BME280;39569;51.090;-1.786;2023-04-29T07:31:04;101356.84;;;21.70;43.98
53246;BME280;39569;51.090;-1.786;2023-04-29T07:33:32;101359.75;;;21.87;43.72
53246;BME280;39569;51.090;-1.786;2023-04-29T07:35:59;101372.56;;;21.98;43.07
53246;BME280;39569;51.090;-1.786;2023-04-29T07:38:25;101362.53;;;22.10;43.36
53246;BME280;39569;51.090;-1.786;2023-04-29T07:40:54;101363.38;;;22.22;43.37
53246;BME280;39569;51.090;-1.786;2023-04-29T07:43:21;101367.41;;;22.19;43.85
53246;BME280;39569;51.090;-1.786;2023-04-29T07:45:48;101359.19;;;21.96;44.11
53246;BME280;39569;51.090;-1.786;2023-04-29T07:48:15;101364.06;;;22.06;43.30
53246;BME280;39569;51.090;-1.786;2023-04-29T07:50:42;101366.63;;;21.89;43.84
53246;BME280;39569;51.090;-1.786;2023-04-29T07:53:09;101360.81;;;22.62;42.94
53246;BME280;39569;51.090;-1.786;2023-04-29T07:55:36;101372.06;;;22.77;43.12
53246;BME280;39569;51.090;-1.786;2023-04-29T07:58:04;101373.09;;;22.87;42.35
53246;BME280;39569;51.090;-1.786;2023-04-29T08:00:31;101368.84;;;22.80;41.86
53246;BME280;39569;51.090;-1.786;2023-04-29T08:02:57;101369.34;;;23.39;41.76
53246;BME280;39569;51.090;-1.786;2023-04-29T08:05:24;101367.91;;;23.65;42.07
53246;BME280;39569;51.090;-1.786;2023-04-29T08:07:51;101370.22;;;24.01;40.98
53246;BME280;39569;51.090;-1.786;2023-04-29T08:10:18;101375.53;;;24.08;40.65
53246;BME280;39569;51.090;-1.786;2023-04-29T08:12:46;101370.34;;;24.23;39.77
53246;BME280;39569;51.090;-1.786;2023-04-29T08:15:15;101374.88;;;24.01;40.74
53246;BME280;39569;51.090;-1.786;2023-04-29T08:17:43;101376.00;;;24.05;39.95
53246;BME280;39569;51.090;-1.786;2023-04-29T08:20:10;101375.94;;;24.50;39.65
53246;BME280;39569;51.090;-1.786;2023-04-29T08:22:37;101375.13;;;24.32;39.65
53246;BME280;39569;51.090;-1.786;2023-04-29T08:25:05;101374.44;;;24.09;40.42
53246;BME280;39569;51.090;-1.786;2023-04-29T08:27:32;101378.56;;;24.78;40.19
53246;BME280;39569;51.090;-1.786;2023-04-29T08:29:58;101378.97;;;24.70;38.93
53246;BME280;39569;51.090;-1.786;2023-04-29T08:32:26;101380.09;;;24.90;39.21
53246;BME280;39569;51.090;-1.786;2023-04-29T08:34:53;101388.72;;;25.20;38.27
53246;BME280;39569;51.090;-1.786;2023-04-29T08:37:20;101390.19;;;25.28;39.12
53246;BME280;39569;51.090;-1.786;2023-04-29T08:39:47;101394.63;;;25.12;39.83
53246;BME280;39569;51.090;-1.786;2023-04-29T08:42:14;101387.44;;;25.71;39.26
53246;BME280;39569;51.090;-1.786;2023-04-29T08:44:42;101390.34;;;25.00;38.56
53246;BME280;39569;51.090;-1.786;2023-04-29T08:47:09;101395.38;;;25.29;37.98
53246;BME280;39569;51.090;-1.786;2023-04-29T08:49:37;101400.03;;;24.53;39.16
53246;BME280;39569;51.090;-1.786;2023-04-29T08:52:04;101395.81;;;25.21;38.87
53246;BME280;39569;51.090;-1.786;2023-04-29T08:54:31;101403.34;;;25.31;38.37
53246;BME280;39569;51.090;-1.786;2023-04-29T08:56:58;101408.16;;;25.24;37.95
53246;BME280;39569;51.090;-1.786;2023-04-29T08:59:28;101406.28;;;25.46;38.24
53246;BME280;39569;51.090;-1.786;2023-04-29T09:01:56;101400.47;;;25.64;38.16
53246;BME280;39569;51.090;-1.786;2023-04-29T09:04:30;101410.53;;;26.39;37.41
53246;BME280;39569;51.090;-1.786;2023-04-29T09:07:04;101414.66;;;26.73;36.84
53246;BME280;39569;51.090;-1.786;2023-04-29T09:09:31;101405.06;;;26.44;36.31
53246;BME280;39569;51.090;-1.786;2023-04-29T09:11:58;101409.28;;;26.88;35.98
53246;BME280;39569;51.090;-1.786;2023-04-29T09:14:27;101412.59;;;27.42;35.99
53246;BME280;39569;51.090;-1.786;2023-04-29T09:16:57;101415.66;;;26.62;35.10
53246;BME280;39569;51.090;-1.786;2023-04-29T09:19:29;101418.03;;;26.53;36.06
53246;BME280;39569;51.090;-1.786;2023-04-29T09:21:56;101416.47;;;26.99;35.93
53246;BME280;39569;51.090;-1.786;2023-04-29T09:24:25;101412.59;;;27.57;34.28
53246;BME280;39569;51.090;-1.786;2023-04-29T09:26:53;101408.09;;;28.02;34.42
53246;BME280;39569;51.090;-1.786;2023-04-29T09:29:21;101410.97;;;27.56;34.10
53246;BME280;39569;51.090;-1.786;2023-04-29T09:31:48;101404.50;;;28.22;34.32
53246;BME280;39569;51.090;-1.786;2023-04-29T09:34:29;101414.28;;;27.68;34.36
53246;BME280;39569;51.090;-1.786;2023-04-29T09:36:57;101405.88;;;28.70;32.29
53246;BME280;39569;51.090;-1.786;2023-04-29T09:39:25;101405.34;;;28.02;33.95
53246;BME280;39569;51.090;-1.786;2023-04-29T09:41:59;101405.69;;;29.45;32.43
53246;BME280;39569;51.090;-1.786;2023-04-29T09:44:28;101401.47;;;30.40;30.28
53246;BME280;39569;51.090;-1.786;2023-04-29T09:46:56;101404.81;;;30.66;30.20
53246;BME280;39569;51.090;-1.786;2023-04-29T09:49:25;101400.88;;;30.72;31.45
53246;BME280;39569;51.090;-1.786;2023-04-29T09:51:53;101417.56;;;29.89;30.79
53246;BME280;39569;51.090;-1.786;2023-04-29T09:54:20;101414.78;;;29.41;31.61
53246;BME280;39569;51.090;-1.786;2023-04-29T09:56:51;101416.56;;;27.96;33.05
53246;BME280;39569;51.090;-1.786;2023-04-29T09:59:18;101419.66;;;29.54;31.14
53246;BME280;39569;51.090;-1.786;2023-04-29T10:01:47;101412.53;;;30.69;30.68
53246;BME280;39569;51.090;-1.786;2023-04-29T10:04:16;101408.50;;;31.56;30.14
53246;BME280;39569;51.090;-1.786;2023-04-29T10:06:44;101416.22;;;30.21;30.58
53246;BME280;39569;51.090;-1.786;2023-04-29T10:09:13;101413.59;;;31.67;31.29
53246;BME280;39569;51.090;-1.786;2023-04-29T10:11:42;101410.94;;;30.91;28.74
53246;BME280;39569;51.090;-1.786;2023-04-29T10:14:13;101409.97;;;30.49;29.98
53246;BME280;39569;51.090;-1.786;2023-04-29T10:16:45;101404.47;;;32.55;28.83
53246;BME280;39569;51.090;-1.786;2023-04-29T10:19:16;101395.16;;;32.97;27.45
53246;BME280;39569;51.090;-1.786;2023-04-29T10:21:47;101395.97;;;32.51;27.79
53246;BME280;39569;51.090;-1.786;2023-04-29T10:24:16;101399.66;;;33.06;28.15
53246;BME280;39569;51.090;-1.786;2023-04-29T10:26:45;101406.63;;;31.70;27.89
53246;BME280;39569;51.090;-1.786;2023-04-29T10:29:14;101403.13;;;31.83;29.09
53246;BME280;39569;51.090;-1.786;2023-04-29T10:31:42;101401.44;;;32.56;26.09
53246;BME280;39569;51.090;-1.786;2023-04-29T10:34:11;101405.63;;;33.76;25.55
53246;BME280;39569;51.090;-1.786;2023-04-29T10:36:39;101401.59;;;33.06;26.30
53246;BME280;39569;51.090;-1.786;2023-04-29T10:39:12;101402.78;;;33.40;26.48
53246;BME280;39569;51.090;-1.786;2023-04-29T10:41:43;101410.91;;;33.37;26.79
53246;BME280;39569;51.090;-1.786;2023-04-29T10:44:11;101410.34;;;33.75;25.26
53246;BME280;39569;51.090;-1.786;2023-04-29T10:46:39;101409.47;;;34.24;24.04
53246;BME280;39569;51.090;-1.786;2023-04-29T10:49:07;101407.13;;;33.06;25.18
53246;BME280;39569;51.090;-1.786;2023-04-29T10:51:39;101405.47;;;34.08;24.29
53246;BME280;39569;51.090;-1.786;2023-04-29T10:54:08;101403.44;;;33.87;23.63
53246;BME280;39569;51.090;-1.786;2023-04-29T10:56:42;101397.94;;;34.09;23.71
53246;BME280;39569;51.090;-1.786;2023-04-29T10:59:11;101407.31;;;33.99;24.20
53246;BME280;39569;51.090;-1.786;2023-04-29T11:01:45;101398.44;;;34.55;24.96
53246;BME280;39569;51.090;-1.786;2023-04-29T11:04:12;101402.31;;;34.76;24.71
53246;BME280;39569;51.090;-1.786;2023-04-29T11:06:41;101397.69;;;34.41;23.31
53246;BME280;39569;51.090;-1.786;2023-04-29T11:09:11;101403.53;;;33.59;26.13
53246;BME280;39569;51.090;-1.786;2023-04-29T11:11:43;101397.56;;;34.24;24.41
53246;BME280;39569;51.090;-1.786;2023-04-29T11:14:11;101393.31;;;35.49;25.38
53246;BME280;39569;51.090;-1.786;2023-04-29T11:16:47;101393.47;;;35.52;23.86
53246;BME280;39569;51.090;-1.786;2023-04-29T11:19:15;101397.38;;;35.43;23.69
53246;BME280;39569;51.090;-1.786;2023-04-29T11:21:43;101397.94;;;34.31;24.58
53246;BME280;39569;51.090;-1.786;2023-04-29T11:24:11;101402.00;;;36.24;25.76
53246;BME280;39569;51.090;-1.786;2023-04-29T11:26:40;101384.66;;;37.20;24.88
53246;BME280;39569;51.090;-1.786;2023-04-29T11:29:07;101380.03;;;36.48;21.94
53246;BME280;39569;51.090;-1.786;2023-04-29T11:31:35;101388.16;;;36.62;23.71
53246;BME280;39569;51.090;-1.786;2023-04-29T11:34:05;101389.41;;;35.84;21.44
53246;BME280;39569;51.090;-1.786;2023-04-29T11:36:33;101382.13;;;37.27;21.99
53246;BME280;39569;51.090;-1.786;2023-04-29T11:39:00;101376.63;;;36.89;20.51
53246;BME280;39569;51.090;-1.786;2023-04-29T11:41:28;101372.09;;;37.84;21.50
53246;BME280;39569;51.090;-1.786;2023-04-29T11:43:56;101373.97;;;37.22;21.79
53246;BME280;39569;51.090;-1.786;2023-04-29T11:46:23;101373.75;;;35.23;22.49
53246;BME280;39569;51.090;-1.786;2023-04-29T11:48:50;101381.38;;;33.82;25.19
53246;BME280;39569;51.090;-1.786;2023-04-29T11:51:18;101369.97;;;33.97;24.65
53246;BME280;39569;51.090;-1.786;2023-04-29T11:53:46;101371.28;;;33.63;23.47
53246;BME280;39569;51.090;-1.786;2023-04-29T11:56:13;101364.50;;;35.45;21.92
53246;BME280;39569;51.090;-1.786;2023-04-29T11:58:41;101358.44;;;36.28;21.73
53246;BME280;39569;51.090;-1.786;2023-04-29T12:01:09;101367.03;;;38.19;20.77
53246;BME280;39569;51.090;-1.786;2023-04-29T12:03:35;101357.38;;;39.58;19.01
53246;BME280;39569;51.090;-1.786;2023-04-29T12:06:02;101361.41;;;40.28;20.75
53246;BME280;39569;51.090;-1.786;2023-04-29T12:08:31;101359.63;;;39.16;18.56
53246;BME280;39569;51.090;-1.786;2023-04-29T12:10:59;101356.50;;;38.04;19.60
53246;BME280;39569;51.090;-1.786;2023-04-29T12:13:28;101360.66;;;34.76;22.30
53246;BME280;39569;51.090;-1.786;2023-04-29T12:15:57;101350.53;;;37.52;20.07
53246;BME280;39569;51.090;-1.786;2023-04-29T12:18:25;101362.28;;;37.99;20.00
53246;BME280;39569;51.090;-1.786;2023-04-29T12:20:52;101352.44;;;38.46;19.33
53246;BME280;39569;51.090;-1.786;2023-04-29T12:23:22;101364.63;;;33.37;23.80
53246;BME280;39569;51.090;-1.786;2023-04-29T12:25:51;101366.72;;;33.05;24.88
53246;BME280;39569;51.090;-1.786;2023-04-29T12:28:19;101361.66;;;32.66;24.85
53246;BME280;39569;51.090;-1.786;2023-04-29T12:30:47;101350.06;;;34.47;22.83
53246;BME280;39569;51.090;-1.786;2023-04-29T12:33:20;101339.47;;;38.86;19.85
53246;BME280;39569;51.090;-1.786;2023-04-29T12:35:48;101338.94;;;41.02;17.92
53246;BME280;39569;51.090;-1.786;2023-04-29T12:38:19;101343.94;;;40.93;16.28
53246;BME280;39569;51.090;-1.786;2023-04-29T12:40:47;101342.41;;;40.80;17.56
53246;BME280;39569;51.090;-1.786;2023-04-29T12:43:16;101346.66;;;39.87;16.82